sensor_id;sensor_type;location;lat;lon;timestamp;P1;durP1;ratioP1;P2;durP2;ratioP2
6203;SDS011;3135;42.602;23.468;2023-05-23T00:02:07;1.20;;;0.90;;
6203;SDS011;3135;42.602;23.468;2023-05-23T00:04:33;1.80;;;0.97;;
6203;SDS011;3135;42.602;23.468;2023-05-23T00:07:00;0.90;;;0.90;;
6203;SDS011;3135;42.602;23.468;2023-05-23T00:09:27;2.17;;;0.80;;
6203;SDS011;3135;42.602;23.468;2023-05-23T00:11:52;1.40;;;0.90;;
6203;SDS011;3135;42.602;23.468;2023-05-23T00:14:17;1.10;;;0.83;;
6203;SDS011;3135;42.602;23.468;2023-05-23T00:16:43;0.97;;;0.90;;
6203;SDS011;3135;42.602;23.468;2023-05-23T00:19:10;1.10;;;1.00;;
6203;SDS011;3135;42.602;23.468;2023-05-23T00:21:38;0.90;;;0.90;;
6203;SDS011;3135;42.602;23.468;2023-05-23T00:24:04;0.93;;;0.93;;
6203;SDS011;3135;42.602;23.468;2023-05-23T00:26:30;1.05;;;0.95;;
6203;SDS011;3135;42.602;23.468;2023-05-23T00:28:56;0.87;;;0.73;;
6203;SDS011;3135;42.602;23.468;2023-05-23T00:31:22;0.98;;;0.80;;
6203;SDS011;3135;42.602;23.468;2023-05-23T00:33:47;0.95;;;0.82;;
6203;SDS011;3135;42.602;23.468;2023-05-23T00:36:13;1.27;;;0.90;;
6203;SDS011;3135;42.602;23.468;2023-05-23T00:38:38;1.30;;;0.90;;
6203;SDS011;3135;42.602;23.468;2023-05-23T00:41:04;1.10;;;1.00;;
6203;SDS011;3135;42.602;23.468;2023-05-23T00:43:30;0.90;;;0.90;;
6203;SDS011;3135;42.602;23.468;2023-05-23T00:45:55;0.83;;;0.83;;
6203;SDS011;3135;42.602;23.468;2023-05-23T00:48:21;1.05;;;0.95;;
6203;SDS011;3135;42.602;23.468;2023-05-23T00:50:49;1.10;;;1.00;;
6203;SDS011;3135;42.602;23.468;2023-05-23T00:53:15;1.10;;;1.00;;
6203;SDS011;3135;42.602;23.468;2023-05-23T00:55:41;1.30;;;1.20;;
6203;SDS011;3135;42.602;23.468;2023-05-23T00:58:07;1.10;;;1.00;;
6203;SDS011;3135;42.602;23.468;2023-05-23T01:00:33;1.52;;;1.10;;
6203;SDS011;3135;42.602;23.468;2023-05-23T01:02:59;1.00;;;1.00;;
6203;SDS011;3135;42.602;23.468;2023-05-23T01:05:25;1.30;;;1.20;;
6203;SDS011;3135;42.602;23.468;2023-05-23T01:07:50;1.35;;;1.20;;
6203;SDS011;3135;42.602;23.468;2023-05-23T01:10:20;1.50;;;1.40;;
6203;SDS011;3135;42.602;23.468;2023-05-23T01:15:18;2.80;;;1.60;;
6203;SDS011;3135;42.602;23.468;2023-05-23T01:20:51;4.45;;;1.77;;
6203;SDS011;3135;42.602;23.468;2023-05-23T01:28:51;1.70;;;1.60;;
6203;SDS011;3135;42.602;23.468;2023-05-23T01:31:20;2.05;;;1.60;;
6203;SDS011;3135;42.602;23.468;2023-05-23T01:33:48;1.60;;;1.50;;
6203;SDS011;3135;42.602;23.468;2023-05-23T01:36:17;2.53;;;1.00;;
6203;SDS011;3135;42.602;23.468;2023-05-23T01:38:43;1.20;;;1.07;;
6203;SDS011;3135;42.602;23.468;2023-05-23T01:41:08;1.23;;;1.00;;
6203;SDS011;3135;42.602;23.468;2023-05-23T01:43:34;0.97;;;0.90;;
6203;SDS011;3135;42.602;23.468;2023-05-23T01:45:59;0.90;;;0.80;;
6203;SDS011;3135;42.602;23.468;2023-05-23T01:48:26;1.73;;;1.10;;
6203;SDS011;3135;42.602;23.468;2023-05-23T01:50:53;1.23;;;1.13;;
6203;SDS011;3135;42.602;23.468;2023-05-23T01:53:21;2.10;;;1.03;;
6203;SDS011;3135;42.602;23.468;2023-05-23T01:55:47;1.20;;;1.10;;
6203;SDS011;3135;42.602;23.468;2023-05-23T01:58:13;1.00;;;0.90;;
6203;SDS011;3135;42.602;23.468;2023-05-23T02:00:39;3.10;;;1.30;;
6203;SDS011;3135;42.602;23.468;2023-05-23T02:03:04;3.22;;;1.00;;
6203;SDS011;3135;42.602;23.468;2023-05-23T02:05:30;1.30;;;1.20;;
6203;SDS011;3135;42.602;23.468;2023-05-23T02:07:56;3.30;;;1.00;;
6203;SDS011;3135;42.602;23.468;2023-05-23T02:10:21;1.20;;;1.00;;
6203;SDS011;3135;42.602;23.468;2023-05-23T02:12:47;0.90;;;0.90;;
6203;SDS011;3135;42.602;23.468;2023-05-23T02:15:12;1.10;;;1.00;;
6203;SDS011;3135;42.602;23.468;2023-05-23T02:17:38;1.20;;;1.10;;
6203;SDS011;3135;42.602;23.468;2023-05-23T02:20:05;1.30;;;1.20;;
6203;SDS011;3135;42.602;23.468;2023-05-23T02:22:31;1.30;;;1.07;;
6203;SDS011;3135;42.602;23.468;2023-05-23T02:24:57;1.38;;;1.25;;
6203;SDS011;3135;42.602;23.468;2023-05-23T02:27:22;1.50;;;1.40;;
6203;SDS011;3135;42.602;23.468;2023-05-23T02:29:48;1.80;;;1.40;;
6203;SDS011;3135;42.602;23.468;2023-05-23T02:32:13;1.67;;;1.50;;
6203;SDS011;3135;42.602;23.468;2023-05-23T02:34:39;1.80;;;1.40;;
6203;SDS011;3135;42.602;23.468;2023-05-23T02:37:04;2.30;;;1.30;;
6203;SDS011;3135;42.602;23.468;2023-05-23T02:39:30;1.27;;;1.17;;
6203;SDS011;3135;42.602;23.468;2023-05-23T02:41:55;2.07;;;1.20;;
6203;SDS011;3135;42.602;23.468;2023-05-23T02:44:20;1.30;;;1.20;;
6203;SDS011;3135;42.602;23.468;2023-05-23T02:46:46;2.50;;;1.30;;
6203;SDS011;3135;42.602;23.468;2023-05-23T02:49:11;1.73;;;1.30;;
6203;SDS011;3135;42.602;23.468;2023-05-23T02:51:37;1.30;;;1.20;;
6203;SDS011;3135;42.602;23.468;2023-05-23T02:54:02;1.40;;;1.30;;
6203;SDS011;3135;42.602;23.468;2023-05-23T02:56:28;1.40;;;1.20;;
6203;SDS011;3135;42.602;23.468;2023-05-23T02:58:53;2.30;;;1.27;;
6203;SDS011;3135;42.602;23.468;2023-05-23T03:01:19;3.13;;;1.50;;
6203;SDS011;3135;42.602;23.468;2023-05-23T03:03:44;2.90;;;1.37;;
6203;SDS011;3135;42.602;23.468;2023-05-23T03:06:10;2.80;;;1.20;;
6203;SDS011;3135;42.602;23.468;2023-05-23T03:08:38;1.83;;;1.48;;
6203;SDS011;3135;42.602;23.468;2023-05-23T03:11:04;1.90;;;1.70;;
6203;SDS011;3135;42.602;23.468;2023-05-23T03:13:30;1.90;;;1.70;;
6203;SDS011;3135;42.602;23.468;2023-05-23T03:15:55;2.90;;;1.80;;
6203;SDS011;3135;42.602;23.468;2023-05-23T03:18:20;2.40;;;1.73;;
6203;SDS011;3135;42.602;23.468;2023-05-23T03:20:46;4.23;;;2.30;;
6203;SDS011;3135;42.602;23.468;2023-05-23T03:23:11;2.70;;;2.10;;
6203;SDS011;3135;42.602;23.468;2023-05-23T03:25:37;2.20;;;2.00;;
6203;SDS011;3135;42.602;23.468;2023-05-23T03:28:02;3.27;;;1.90;;
6203;SDS011;3135;42.602;23.468;2023-05-23T03:30:27;2.00;;;1.90;;
6203;SDS011;3135;42.602;23.468;2023-05-23T03:32:53;2.60;;;1.90;;
6203;SDS011;3135;42.602;23.468;2023-05-23T03:35:19;3.28;;;1.65;;
6203;SDS011;3135;42.602;23.468;2023-05-23T03:37:45;2.70;;;2.10;;
6203;SDS011;3135;42.602;23.468;2023-05-23T03:40:10;2.40;;;2.00;;
6203;SDS011;3135;42.602;23.468;2023-05-23T03:42:37;2.40;;;2.20;;
6203;SDS011;3135;42.602;23.468;2023-05-23T03:45:03;2.37;;;2.17;;
6203;SDS011;3135;42.602;23.468;2023-05-23T03:47:29;3.35;;;2.08;;
6203;SDS011;3135;42.602;23.468;2023-05-23T03:49:55;3.60;;;2.50;;
6203;SDS011;3135;42.602;23.468;2023-05-23T03:52:20;6.10;;;2.80;;
6203;SDS011;3135;42.602;23.468;2023-05-23T03:54:46;7.47;;;2.92;;
6203;SDS011;3135;42.602;23.468;2023-05-23T03:57:12;3.00;;;2.30;;
6203;SDS011;3135;42.602;23.468;2023-05-23T03:59:37;3.17;;;2.60;;
6203;SDS011;3135;42.602;23.468;2023-05-23T04:02:02;4.10;;;3.33;;
6203;SDS011;3135;42.602;23.468;2023-05-23T04:04:28;3.10;;;2.90;;
6203;SDS011;3135;42.602;23.468;2023-05-23T04:06:54;4.13;;;2.87;;
6203;SDS011;3135;42.602;23.468;2023-05-23T04:09:20;4.00;;;2.70;;
6203;SDS011;3135;42.602;23.468;2023-05-23T04:11:45;3.75;;;2.95;;
6203;SDS011;3135;42.602;23.468;2023-05-23T04:14:11;4.25;;;3.00;;
6203;SDS011;3135;42.602;23.468;2023-05-23T04:16:37;5.10;;;3.60;;
6203;SDS011;3135;42.602;23.468;2023-05-23T04:19:05;3.92;;;3.03;;
6203;SDS011;3135;42.602;23.468;2023-05-23T04:21:31;9.23;;;3.70;;
6203;SDS011;3135;42.602;23.468;2023-05-23T04:23:56;11.13;;;3.50;;
6203;SDS011;3135;42.602;23.468;2023-05-23T04:26:22;10.97;;;3.33;;
6203;SDS011;3135;42.602;23.468;2023-05-23T04:28:47;13.17;;;3.80;;
6203;SDS011;3135;42.602;23.468;2023-05-23T04:31:13;17.53;;;3.50;;
6203;SDS011;3135;42.602;23.468;2023-05-23T04:33:38;12.18;;;3.60;;
6203;SDS011;3135;42.602;23.468;2023-05-23T04:36:04;5.40;;;3.30;;
6203;SDS011;3135;42.602;23.468;2023-05-23T04:38:33;7.07;;;4.33;;
6203;SDS011;3135;42.602;23.468;2023-05-23T04:40:59;10.82;;;4.50;;
6203;SDS011;3135;42.602;23.468;2023-05-23T04:43:24;5.68;;;4.03;;
6203;SDS011;3135;42.602;23.468;2023-05-23T04:45:51;7.65;;;4.28;;
6203;SDS011;3135;42.602;23.468;2023-05-23T04:48:18;7.53;;;4.80;;
6203;SDS011;3135;42.602;23.468;2023-05-23T04:50:45;7.13;;;4.63;;
6203;SDS011;3135;42.602;23.468;2023-05-23T04:53:11;8.55;;;4.82;;
6203;SDS011;3135;42.602;23.468;2023-05-23T04:55:37;8.77;;;5.43;;
6203;SDS011;3135;42.602;23.468;2023-05-23T04:58:02;14.48;;;5.95;;
6203;SDS011;3135;42.602;23.468;2023-05-23T05:00:28;21.65;;;5.72;;
6203;SDS011;3135;42.602;23.468;2023-05-23T05:02:54;10.65;;;5.97;;
6203;SDS011;3135;42.602;23.468;2023-05-23T05:05:20;15.73;;;6.13;;
6203;SDS011;3135;42.602;23.468;2023-05-23T05:07:45;11.77;;;5.30;;
6203;SDS011;3135;42.602;23.468;2023-05-23T05:10:11;9.37;;;5.20;;
6203;SDS011;3135;42.602;23.468;2023-05-23T05:12:44;9.37;;;5.20;;
6203;SDS011;3135;42.602;23.468;2023-05-23T05:15:16;10.98;;;5.70;;
6203;SDS011;3135;42.602;23.468;2023-05-23T05:17:42;12.63;;;6.00;;
6203;SDS011;3135;42.602;23.468;2023-05-23T05:20:08;11.95;;;5.78;;
6203;SDS011;3135;42.602;23.468;2023-05-23T05:22:35;11.75;;;5.68;;
6203;SDS011;3135;42.602;23.468;2023-05-23T05:25:04;13.80;;;6.05;;
6203;SDS011;3135;42.602;23.468;2023-05-23T05:27:31;13.00;;;5.50;;
6203;SDS011;3135;42.602;23.468;2023-05-23T05:29:56;14.73;;;7.40;;
6203;SDS011;3135;42.602;23.468;2023-05-23T05:32:27;16.65;;;5.32;;
6203;SDS011;3135;42.602;23.468;2023-05-23T05:34:54;11.88;;;5.43;;
6203;SDS011;3135;42.602;23.468;2023-05-23T05:37:20;12.73;;;5.57;;
6203;SDS011;3135;42.602;23.468;2023-05-23T05:39:46;10.45;;;5.47;;
6203;SDS011;3135;42.602;23.468;2023-05-23T05:42:11;13.60;;;6.07;;
6203;SDS011;3135;42.602;23.468;2023-05-23T05:44:37;12.67;;;5.43;;
6203;SDS011;3135;42.602;23.468;2023-05-23T05:47:02;12.87;;;6.37;;
6203;SDS011;3135;42.602;23.468;2023-05-23T05:49:28;10.73;;;6.03;;
6203;SDS011;3135;42.602;23.468;2023-05-23T05:51:53;12.63;;;6.10;;
6203;SDS011;3135;42.602;23.468;2023-05-23T05:54:18;12.37;;;6.20;;
6203;SDS011;3135;42.602;23.468;2023-05-23T05:56:45;13.18;;;6.20;;
6203;SDS011;3135;42.602;23.468;2023-05-23T05:59:11;11.35;;;6.18;;
6203;SDS011;3135;42.602;23.468;2023-05-23T06:01:36;12.37;;;6.97;;
6203;SDS011;3135;42.602;23.468;2023-05-23T06:04:01;11.88;;;6.18;;
6203;SDS011;3135;42.602;23.468;2023-05-23T06:06:27;11.73;;;6.28;;
6203;SDS011;3135;42.602;23.468;2023-05-23T06:08:52;14.73;;;7.00;;
6203;SDS011;3135;42.602;23.468;2023-05-23T06:11:18;9.97;;;5.93;;
6203;SDS011;3135;42.602;23.468;2023-05-23T06:13:43;13.67;;;7.07;;
6203;SDS011;3135;42.602;23.468;2023-05-23T06:16:09;14.23;;;7.47;;
6203;SDS011;3135;42.602;23.468;2023-05-23T06:18:34;12.77;;;6.47;;
6203;SDS011;3135;42.602;23.468;2023-05-23T06:20:59;12.95;;;6.65;;
6203;SDS011;3135;42.602;23.468;2023-05-23T06:23:25;14.67;;;7.27;;
6203;SDS011;3135;42.602;23.468;2023-05-23T06:25:50;15.87;;;7.90;;
6203;SDS011;3135;42.602;23.468;2023-05-23T06:28:16;14.00;;;7.20;;
6203;SDS011;3135;42.602;23.468;2023-05-23T06:30:41;17.80;;;7.73;;
6203;SDS011;3135;42.602;23.468;2023-05-23T06:33:07;12.83;;;6.87;;
6203;SDS011;3135;42.602;23.468;2023-05-23T06:35:32;14.88;;;7.50;;
6203;SDS011;3135;42.602;23.468;2023-05-23T06:37:58;14.73;;;7.15;;
6203;SDS011;3135;42.602;23.468;2023-05-23T06:40:23;14.83;;;7.33;;
6203;SDS011;3135;42.602;23.468;2023-05-23T06:42:48;16.07;;;8.10;;
6203;SDS011;3135;42.602;23.468;2023-05-23T06:45:14;15.07;;;7.17;;
6203;SDS011;3135;42.602;23.468;2023-05-23T06:47:40;14.32;;;7.25;;
6203;SDS011;3135;42.602;23.468;2023-05-23T06:50:08;14.87;;;7.63;;
6203;SDS011;3135;42.602;23.468;2023-05-23T06:52:33;15.02;;;7.80;;
6203;SDS011;3135;42.602;23.468;2023-05-23T06:54:59;18.13;;;8.20;;
6203;SDS011;3135;42.602;23.468;2023-05-23T06:57:24;14.73;;;7.40;;
6203;SDS011;3135;42.602;23.468;2023-05-23T06:59:50;15.30;;;7.43;;
6203;SDS011;3135;42.602;23.468;2023-05-23T07:02:15;15.53;;;7.20;;
6203;SDS011;3135;42.602;23.468;2023-05-23T07:04:40;16.13;;;7.80;;
6203;SDS011;3135;42.602;23.468;2023-05-23T07:07:06;14.75;;;7.78;;
6203;SDS011;3135;42.602;23.468;2023-05-23T07:09:31;17.07;;;7.70;;
6203;SDS011;3135;42.602;23.468;2023-05-23T07:11:57;16.93;;;7.57;;
6203;SDS011;3135;42.602;23.468;2023-05-23T07:14:22;14.80;;;7.37;;
6203;SDS011;3135;42.602;23.468;2023-05-23T07:16:47;15.23;;;8.20;;
6203;SDS011;3135;42.602;23.468;2023-05-23T07:19:13;15.90;;;7.90;;
6203;SDS011;3135;42.602;23.468;2023-05-23T07:21:38;15.75;;;7.32;;
6203;SDS011;3135;42.602;23.468;2023-05-23T07:24:04;14.07;;;7.87;;
6203;SDS011;3135;42.602;23.468;2023-05-23T07:26:30;16.60;;;8.13;;
6203;SDS011;3135;42.602;23.468;2023-05-23T07:28:55;14.03;;;7.70;;
6203;SDS011;3135;42.602;23.468;2023-05-23T07:31:20;16.00;;;7.70;;
6203;SDS011;3135;42.602;23.468;2023-05-23T07:33:46;15.70;;;8.53;;
6203;SDS011;3135;42.602;23.468;2023-05-23T07:36:11;15.13;;;7.60;;
6203;SDS011;3135;42.602;23.468;2023-05-23T07:38:37;14.23;;;8.07;;
6203;SDS011;3135;42.602;23.468;2023-05-23T07:41:02;14.80;;;7.70;;
6203;SDS011;3135;42.602;23.468;2023-05-23T07:43:28;16.17;;;8.50;;
6203;SDS011;3135;42.602;23.468;2023-05-23T07:45:53;17.70;;;9.30;;
6203;SDS011;3135;42.602;23.468;2023-05-23T07:48:19;17.83;;;8.73;;
6203;SDS011;3135;42.602;23.468;2023-05-23T07:50:44;18.85;;;9.27;;
6203;SDS011;3135;42.602;23.468;2023-05-23T07:53:09;21.00;;;9.70;;
6203;SDS011;3135;42.602;23.468;2023-05-23T07:55:35;19.97;;;9.50;;
6203;SDS011;3135;42.602;23.468;2023-05-23T07:58:00;19.73;;;9.40;;
6203;SDS011;3135;42.602;23.468;2023-05-23T08:00:26;19.40;;;8.82;;
6203;SDS011;3135;42.602;23.468;2023-05-23T08:02:52;17.83;;;8.70;;
6203;SDS011;3135;42.602;23.468;2023-05-23T08:05:17;17.60;;;8.30;;
6203;SDS011;3135;42.602;23.468;2023-05-23T08:07:43;17.77;;;8.37;;
6203;SDS011;3135;42.602;23.468;2023-05-23T08:10:09;18.20;;;8.60;;
6203;SDS011;3135;42.602;23.468;2023-05-23T08:12:35;15.73;;;8.00;;
6203;SDS011;3135;42.602;23.468;2023-05-23T08:15:00;17.43;;;7.83;;
6203;SDS011;3135;42.602;23.468;2023-05-23T08:17:26;15.40;;;7.80;;
6203;SDS011;3135;42.602;23.468;2023-05-23T08:19:52;14.50;;;7.40;;
6203;SDS011;3135;42.602;23.468;2023-05-23T08:22:17;13.67;;;7.37;;
6203;SDS011;3135;42.602;23.468;2023-05-23T08:24:43;12.75;;;6.78;;
6203;SDS011;3135;42.602;23.468;2023-05-23T08:27:08;15.50;;;7.55;;
6203;SDS011;3135;42.602;23.468;2023-05-23T08:29:34;11.87;;;6.57;;
6203;SDS011;3135;42.602;23.468;2023-05-23T08:31:59;11.50;;;6.73;;
6203;SDS011;3135;42.602;23.468;2023-05-23T08:34:25;12.00;;;6.73;;
6203;SDS011;3135;42.602;23.468;2023-05-23T08:36:50;15.97;;;6.80;;
6203;SDS011;3135;42.602;23.468;2023-05-23T08:39:16;13.02;;;7.00;;
6203;SDS011;3135;42.602;23.468;2023-05-23T08:41:42;12.07;;;6.80;;
6203;SDS011;3135;42.602;23.468;2023-05-23T08:44:08;12.07;;;6.67;;
6203;SDS011;3135;42.602;23.468;2023-05-23T08:46:33;9.60;;;6.20;;
6203;SDS011;3135;42.602;23.468;2023-05-23T08:49:08;12.65;;;5.70;;
6203;SDS011;3135;42.602;23.468;2023-05-23T08:51:34;9.02;;;5.93;;
6203;SDS011;3135;42.602;23.468;2023-05-23T08:54:02;9.30;;;5.72;;
6203;SDS011;3135;42.602;23.468;2023-05-23T08:56:30;9.23;;;5.20;;
6203;SDS011;3135;42.602;23.468;2023-05-23T08:58:56;7.73;;;4.27;;
6203;SDS011;3135;42.602;23.468;2023-05-23T09:01:22;5.22;;;4.03;;
6203;SDS011;3135;42.602;23.468;2023-05-23T09:03:48;5.40;;;4.30;;
6203;SDS011;3135;42.602;23.468;2023-05-23T09:06:15;6.55;;;4.30;;
6203;SDS011;3135;42.602;23.468;2023-05-23T09:08:42;6.88;;;3.88;;
6203;SDS011;3135;42.602;23.468;2023-05-23T09:11:10;9.23;;;4.70;;
6203;SDS011;3135;42.602;23.468;2023-05-23T09:13:37;6.43;;;4.15;;
6203;SDS011;3135;42.602;23.468;2023-05-23T09:16:04;5.40;;;3.83;;
6203;SDS011;3135;42.602;23.468;2023-05-23T09:18:32;3.40;;;3.10;;
6203;SDS011;3135;42.602;23.468;2023-05-23T09:21:01;6.57;;;3.10;;
6203;SDS011;3135;42.602;23.468;2023-05-23T09:23:29;7.82;;;3.60;;
6203;SDS011;3135;42.602;23.468;2023-05-23T09:25:55;3.47;;;3.17;;
6203;SDS011;3135;42.602;23.468;2023-05-23T09:28:21;11.88;;;3.70;;
6203;SDS011;3135;42.602;23.468;2023-05-23T09:30:47;5.40;;;3.58;;
6203;SDS011;3135;42.602;23.468;2023-05-23T09:33:22;3.28;;;2.60;;
6203;SDS011;3135;42.602;23.468;2023-05-23T09:35:47;5.20;;;3.10;;
6203;SDS011;3135;42.602;23.468;2023-05-23T09:38:12;3.13;;;2.80;;
6203;SDS011;3135;42.602;23.468;2023-05-23T09:40:43;4.78;;;2.90;;
6203;SDS011;3135;42.602;23.468;2023-05-23T09:43:09;5.15;;;2.58;;
6203;SDS011;3135;42.602;23.468;2023-05-23T09:45:35;3.03;;;2.70;;
6203;SDS011;3135;42.602;23.468;2023-05-23T09:48:01;3.65;;;2.92;;
6203;SDS011;3135;42.602;23.468;2023-05-23T09:50:30;4.90;;;2.70;;
6203;SDS011;3135;42.602;23.468;2023-05-23T09:52:57;3.00;;;2.33;;
6203;SDS011;3135;42.602;23.468;2023-05-23T09:55:24;2.85;;;2.63;;
6203;SDS011;3135;42.602;23.468;2023-05-23T09:57:51;2.75;;;2.55;;
6203;SDS011;3135;42.602;23.468;2023-05-23T10:00:20;3.78;;;2.60;;
6203;SDS011;3135;42.602;23.468;2023-05-23T10:08:10;3.67;;;2.90;;
6203;SDS011;3135;42.602;23.468;2023-05-23T10:13:28;4.03;;;2.72;;
6203;SDS011;3135;42.602;23.468;2023-05-23T10:16:01;2.50;;;2.30;;
6203;SDS011;3135;42.602;23.468;2023-05-23T10:18:34;2.97;;;2.33;;
6203;SDS011;3135;42.602;23.468;2023-05-23T10:21:10;3.90;;;2.30;;
6203;SDS011;3135;42.602;23.468;2023-05-23T10:23:38;4.47;;;2.38;;
6203;SDS011;3135;42.602;23.468;2023-05-23T10:26:04;2.92;;;2.17;;
6203;SDS011;3135;42.602;23.468;2023-05-23T10:28:31;2.10;;;2.00;;
6203;SDS011;3135;42.602;23.468;2023-05-23T10:30:58;2.80;;;2.28;;
6203;SDS011;3135;42.602;23.468;2023-05-23T10:33:24;4.20;;;2.60;;
6203;SDS011;3135;42.602;23.468;2023-05-23T10:36:07;2.92;;;2.40;;
6203;SDS011;3135;42.602;23.468;2023-05-23T10:38:36;2.58;;;2.38;;
6203;SDS011;3135;42.602;23.468;2023-05-23T10:41:08;4.85;;;2.20;;
6203;SDS011;3135;42.602;23.468;2023-05-23T10:46:07;5.63;;;4.50;;
6203;SDS011;3135;42.602;23.468;2023-05-23T10:51:03;2.95;;;2.50;;
6203;SDS011;3135;42.602;23.468;2023-05-23T10:53:30;6.57;;;2.65;;
6203;SDS011;3135;42.602;23.468;2023-05-23T10:55:58;2.78;;;2.50;;
6203;SDS011;3135;42.602;23.468;2023-05-23T10:58:24;3.33;;;2.30;;
6203;SDS011;3135;42.602;23.468;2023-05-23T11:00:52;3.20;;;2.00;;
6203;SDS011;3135;42.602;23.468;2023-05-23T11:03:30;3.65;;;2.30;;
6203;SDS011;3135;42.602;23.468;2023-05-23T11:05:59;2.20;;;2.00;;
6203;SDS011;3135;42.602;23.468;2023-05-23T11:08:26;3.93;;;2.53;;
6203;SDS011;3135;42.602;23.468;2023-05-23T11:11:02;4.03;;;2.33;;
6203;SDS011;3135;42.602;23.468;2023-05-23T11:16:23;2.88;;;2.50;;
6203;SDS011;3135;42.602;23.468;2023-05-23T11:18:48;3.70;;;2.40;;
6203;SDS011;3135;42.602;23.468;2023-05-23T11:21:14;4.70;;;2.57;;
6203;SDS011;3135;42.602;23.468;2023-05-23T11:23:40;2.60;;;2.10;;
6203;SDS011;3135;42.602;23.468;2023-05-23T11:26:27;2.50;;;2.13;;
6203;SDS011;3135;42.602;23.468;2023-05-23T11:28:56;5.60;;;2.40;;
6203;SDS011;3135;42.602;23.468;2023-05-23T11:31:22;3.78;;;2.30;;
6203;SDS011;3135;42.602;23.468;2023-05-23T11:33:51;3.72;;;2.15;;
6203;SDS011;3135;42.602;23.468;2023-05-23T11:36:17;4.50;;;2.40;;
6203;SDS011;3135;42.602;23.468;2023-05-23T11:38:43;5.30;;;2.30;;
6203;SDS011;3135;42.602;23.468;2023-05-23T11:41:08;2.78;;;2.50;;
6203;SDS011;3135;42.602;23.468;2023-05-23T11:43:33;2.63;;;2.30;;
6203;SDS011;3135;42.602;23.468;2023-05-23T11:46:06;4.33;;;2.50;;
6203;SDS011;3135;42.602;23.468;2023-05-23T11:48:33;3.80;;;2.30;;
6203;SDS011;3135;42.602;23.468;2023-05-23T11:50:58;2.43;;;2.10;;
6203;SDS011;3135;42.602;23.468;2023-05-23T11:53:25;4.97;;;2.47;;
6203;SDS011;3135;42.602;23.468;2023-05-23T11:55:55;3.05;;;2.58;;
6203;SDS011;3135;42.602;23.468;2023-05-23T11:58:26;2.90;;;2.63;;
6203;SDS011;3135;42.602;23.468;2023-05-23T12:01:00;2.80;;;2.50;;
6203;SDS011;3135;42.602;23.468;2023-05-23T12:03:27;5.05;;;2.53;;
6203;SDS011;3135;42.602;23.468;2023-05-23T12:05:56;3.00;;;2.33;;
6203;SDS011;3135;42.602;23.468;2023-05-23T12:08:23;6.20;;;2.72;;
6203;SDS011;3135;42.602;23.468;2023-05-23T12:10:53;2.60;;;2.37;;
6203;SDS011;3135;42.602;23.468;2023-05-23T12:13:24;3.20;;;2.60;;
6203;SDS011;3135;42.602;23.468;2023-05-23T12:15:58;3.65;;;2.40;;
6203;SDS011;3135;42.602;23.468;2023-05-23T12:18:28;3.88;;;2.40;;
6203;SDS011;3135;42.602;23.468;2023-05-23T12:21:02;3.97;;;2.33;;
6203;SDS011;3135;42.602;23.468;2023-05-23T12:23:29;3.03;;;2.42;;
6203;SDS011;3135;42.602;23.468;2023-05-23T12:25:55;4.50;;;2.30;;
6203;SDS011;3135;42.602;23.468;2023-05-23T12:28:38;2.60;;;2.40;;
6203;SDS011;3135;42.602;23.468;2023-05-23T12:33:41;3.45;;;2.25;;
6203;SDS011;3135;42.602;23.468;2023-05-23T12:36:11;5.05;;;2.40;;
6203;SDS011;3135;42.602;23.468;2023-05-23T12:38:37;3.08;;;2.50;;
6203;SDS011;3135;42.602;23.468;2023-05-23T12:41:11;2.63;;;2.42;;
6203;SDS011;3135;42.602;23.468;2023-05-23T12:43:48;4.85;;;2.40;;
6203;SDS011;3135;42.602;23.468;2023-05-23T12:46:17;3.87;;;2.83;;
6203;SDS011;3135;42.602;23.468;2023-05-23T12:48:43;3.05;;;2.35;;
6203;SDS011;3135;42.602;23.468;2023-05-23T12:51:09;3.75;;;2.42;;
6203;SDS011;3135;42.602;23.468;2023-05-23T12:53:34;2.77;;;2.50;;
6203;SDS011;3135;42.602;23.468;2023-05-23T12:56:00;3.63;;;2.53;;
6203;SDS011;3135;42.602;23.468;2023-05-23T12:58:26;4.00;;;2.70;;
6203;SDS011;3135;42.602;23.468;2023-05-23T13:00:51;2.85;;;2.30;;
6203;SDS011;3135;42.602;23.468;2023-05-23T13:03:17;5.73;;;2.33;;
6203;SDS011;3135;42.602;23.468;2023-05-23T13:05:42;4.70;;;2.60;;
6203;SDS011;3135;42.602;23.468;2023-05-23T13:08:08;5.07;;;2.57;;
6203;SDS011;3135;42.602;23.468;2023-05-23T13:10:33;3.70;;;2.47;;
6203;SDS011;3135;42.602;23.468;2023-05-23T13:12:59;4.70;;;2.73;;
6203;SDS011;3135;42.602;23.468;2023-05-23T13:15:24;4.17;;;2.67;;
6203;SDS011;3135;42.602;23.468;2023-05-23T13:17:50;3.65;;;2.50;;
6203;SDS011;3135;42.602;23.468;2023-05-23T13:20:16;2.55;;;2.35;;
6203;SDS011;3135;42.602;23.468;2023-05-23T13:22:41;3.47;;;2.53;;
6203;SDS011;3135;42.602;23.468;2023-05-23T13:25:07;4.87;;;2.47;;
6203;SDS011;3135;42.602;23.468;2023-05-23T13:27:33;2.67;;;2.40;;
6203;SDS011;3135;42.602;23.468;2023-05-23T13:29:58;2.95;;;2.45;;
6203;SDS011;3135;42.602;23.468;2023-05-23T13:32:24;3.50;;;2.90;;
6203;SDS011;3135;42.602;23.468;2023-05-23T13:34:50;2.92;;;2.42;;
6203;SDS011;3135;42.602;23.468;2023-05-23T13:37:16;2.65;;;2.45;;
6203;SDS011;3135;42.602;23.468;2023-05-23T13:39:41;3.83;;;2.80;;
6203;SDS011;3135;42.602;23.468;2023-05-23T13:42:07;4.60;;;2.60;;
6203;SDS011;3135;42.602;23.468;2023-05-23T13:44:32;4.15;;;2.50;;
6203;SDS011;3135;42.602;23.468;2023-05-23T13:47:00;4.63;;;2.60;;
6203;SDS011;3135;42.602;23.468;2023-05-23T13:49:34;3.20;;;2.63;;
6203;SDS011;3135;42.602;23.468;2023-05-23T13:52:00;3.42;;;2.58;;
6203;SDS011;3135;42.602;23.468;2023-05-23T13:54:25;3.23;;;2.60;;
6203;SDS011;3135;42.602;23.468;2023-05-23T13:56:51;2.93;;;2.63;;
6203;SDS011;3135;42.602;23.468;2023-05-23T13:59:16;5.03;;;2.50;;
6203;SDS011;3135;42.602;23.468;2023-05-23T14:01:45;2.88;;;2.55;;
6203;SDS011;3135;42.602;23.468;2023-05-23T14:04:11;3.47;;;2.40;;
6203;SDS011;3135;42.602;23.468;2023-05-23T14:06:37;4.13;;;2.33;;
6203;SDS011;3135;42.602;23.468;2023-05-23T14:09:03;3.07;;;2.57;;
6203;SDS011;3135;42.602;23.468;2023-05-23T14:11:29;3.15;;;2.80;;
6203;SDS011;3135;42.602;23.468;2023-05-23T14:13:54;4.37;;;2.70;;
6203;SDS011;3135;42.602;23.468;2023-05-23T14:16:20;12.73;;;3.10;;
6203;SDS011;3135;42.602;23.468;2023-05-23T14:18:45;3.60;;;2.30;;
6203;SDS011;3135;42.602;23.468;2023-05-23T14:21:11;3.10;;;2.60;;
6203;SDS011;3135;42.602;23.468;2023-05-23T14:23:36;3.30;;;2.40;;
6203;SDS011;3135;42.602;23.468;2023-05-23T14:26:02;4.40;;;2.50;;
6203;SDS011;3135;42.602;23.468;2023-05-23T14:28:27;4.00;;;2.77;;
6203;SDS011;3135;42.602;23.468;2023-05-23T14:30:53;3.03;;;2.45;;
6203;SDS011;3135;42.602;23.468;2023-05-23T14:33:19;4.22;;;2.50;;
6203;SDS011;3135;42.602;23.468;2023-05-23T14:35:45;4.27;;;2.50;;
6203;SDS011;3135;42.602;23.468;2023-05-23T14:38:11;3.57;;;2.43;;
6203;SDS011;3135;42.602;23.468;2023-05-23T14:40:36;3.80;;;2.42;;
6203;SDS011;3135;42.602;23.468;2023-05-23T14:43:01;3.90;;;2.40;;
6203;SDS011;3135;42.602;23.468;2023-05-23T14:45:27;3.55;;;2.58;;
6203;SDS011;3135;42.602;23.468;2023-05-23T14:47:52;3.10;;;2.80;;
6203;SDS011;3135;42.602;23.468;2023-05-23T14:50:18;4.20;;;2.80;;
6203;SDS011;3135;42.602;23.468;2023-05-23T14:52:43;4.10;;;2.50;;
6203;SDS011;3135;42.602;23.468;2023-05-23T14:55:09;5.50;;;2.63;;
6203;SDS011;3135;42.602;23.468;2023-05-23T14:57:35;3.70;;;2.67;;
6203;SDS011;3135;42.602;23.468;2023-05-23T15:00:01;3.70;;;2.30;;
6203;SDS011;3135;42.602;23.468;2023-05-23T15:02:29;4.25;;;2.58;;
6203;SDS011;3135;42.602;23.468;2023-05-23T15:04:56;3.93;;;2.43;;
6203;SDS011;3135;42.602;23.468;2023-05-23T15:07:21;3.60;;;2.53;;
6203;SDS011;3135;42.602;23.468;2023-05-23T15:09:47;3.23;;;2.40;;
6203;SDS011;3135;42.602;23.468;2023-05-23T15:12:12;2.60;;;2.38;;
6203;SDS011;3135;42.602;23.468;2023-05-23T15:14:40;2.40;;;2.20;;
6203;SDS011;3135;42.602;23.468;2023-05-23T15:17:05;9.57;;;2.90;;
6203;SDS011;3135;42.602;23.468;2023-05-23T15:19:34;2.53;;;2.33;;
6203;SDS011;3135;42.602;23.468;2023-05-23T15:22:00;2.97;;;2.60;;
6203;SDS011;3135;42.602;23.468;2023-05-23T15:24:26;2.90;;;2.40;;